createdAt,value
2022-12-03T00:00:19.915Z,33.90
2022-12-03T00:02:46.410Z,29.70
2022-12-03T00:05:12.994Z,34.30
2022-12-03T00:07:39.605Z,37.00
2022-12-03T00:10:07.380Z,35.80
2022-12-03T00:12:34.039Z,43.30
2022-12-03T00:15:00.433Z,36.40
2022-12-03T00:17:26.793Z,36.50
2022-12-03T00:19:53.177Z,26.00
2022-12-03T00:22:19.590Z,26.70
2022-12-03T00:24:46.079Z,23.30
2022-12-03T00:27:12.409Z,25.50
2022-12-03T00:29:38.795Z,24.30
2022-12-03T00:32:05.644Z,37.90
2022-12-03T00:34:32.070Z,28.90
2022-12-03T00:36:58.498Z,30.10
2022-12-03T00:39:24.970Z,41.60
2022-12-03T00:41:51.300Z,42.40
2022-12-03T00:44:17.786Z,35.80
2022-12-03T00:46:44.410Z,34.40
2022-12-03T00:49:10.943Z,30.60
2022-12-03T00:51:37.456Z,31.40
2022-12-03T00:54:03.942Z,30.90
2022-12-03T00:56:30.311Z,38.40
2022-12-03T00:58:56.725Z,36.90
2022-12-03T01:01:23.274Z,30.20
2022-12-03T01:03:49.701Z,30.20
2022-12-03T01:06:16.036Z,36.70
2022-12-03T01:08:42.410Z,37.90
2022-12-03T01:11:28.810Z,40.40
2022-12-03T01:13:55.312Z,44.90
2022-12-03T01:16:21.749Z,38.70
2022-12-03T01:18:48.209Z,38.20
2022-12-03T01:21:14.642Z,36.00
2022-12-03T01:23:40.998Z,37.80
2022-12-03T01:26:07.411Z,36.10
2022-12-03T01:28:33.755Z,43.00
2022-12-03T01:31:18.615Z,40.70
2022-12-03T01:33:44.992Z,35.30
2022-12-03T01:36:11.321Z,33.60
2022-12-03T01:38:37.794Z,44.90
2022-12-03T01:41:10.095Z,43.80
2022-12-03T01:43:38.454Z,41.90
2022-12-03T01:46:05.038Z,44.50
2022-12-03T01:48:35.989Z,39.50
2022-12-03T01:51:02.421Z,43.10
2022-12-03T01:53:28.948Z,39.80
2022-12-03T01:55:55.650Z,37.60
2022-12-03T01:58:28.894Z,38.70
2022-12-03T02:00:59.009Z,34.60
2022-12-03T02:03:26.529Z,44.30
2022-12-03T02:05:53.554Z,37.90
2022-12-03T02:08:32.288Z,28.40
2022-12-03T02:11:36.482Z,33.30
2022-12-03T02:14:11.851Z,47.20
2022-12-03T02:16:41.905Z,50.70
2022-12-03T02:19:26.851Z,40.20
2022-12-03T02:22:16.464Z,48.10
2022-12-03T02:25:18.211Z,40.60
2022-12-03T02:27:45.693Z,35.50
2022-12-03T02:30:17.790Z,36.70
2022-12-03T02:32:44.416Z,33.30
2022-12-03T02:35:17.609Z,31.30
2022-12-03T02:37:47.154Z,37.40
2022-12-03T02:40:23.485Z,41.30
2022-12-03T02:42:56.479Z,42.70
2022-12-03T02:45:32.197Z,46.00
2022-12-03T02:48:03.767Z,46.10
2022-12-03T02:50:34.840Z,42.90
2022-12-03T02:53:07.123Z,40.90
2022-12-03T02:55:37.428Z,39.20
2022-12-03T02:58:05.431Z,43.80
2022-12-03T03:00:33.383Z,37.20
2022-12-03T03:03:02.561Z,48.40
2022-12-03T03:05:29.272Z,33.50
2022-12-03T03:07:58.355Z,44.50
2022-12-03T03:10:26.636Z,36.50
2022-12-03T03:12:55.409Z,40.50
2022-12-03T03:15:24.307Z,41.20
2022-12-03T03:17:51.866Z,44.30
2022-12-03T03:20:19.252Z,43.80
2022-12-03T03:22:45.703Z,37.90
2022-12-03T03:25:16.993Z,40.90
2022-12-03T03:27:45.645Z,43.10
2022-12-03T03:30:14.142Z,34.50
2022-12-03T03:32:42.571Z,33.10
2022-12-03T03:35:11.443Z,40.20
2022-12-03T03:37:38.887Z,27.80
2022-12-03T03:40:06.682Z,40.20
2022-12-03T03:42:33.887Z,34.80
2022-12-03T03:45:00.714Z,37.10
2022-12-03T03:47:27.319Z,42.40
2022-12-03T03:49:54.156Z,42.30
2022-12-03T03:52:20.811Z,45.90
2022-12-03T03:54:47.572Z,38.10
2022-12-03T03:57:14.404Z,36.20
2022-12-03T03:59:41.400Z,36.10
2022-12-03T04:02:18.885Z,28.20
2022-12-03T04:04:45.529Z,35.70
2022-12-03T04:07:11.968Z,37.60
2022-12-03T04:09:38.397Z,44.80
2022-12-03T04:12:23.787Z,31.80
2022-12-03T04:14:50.292Z,31.50
2022-12-03T04:17:16.711Z,38.90
2022-12-03T04:19:43.131Z,42.00
2022-12-03T04:22:28.104Z,40.80
2022-12-03T04:25:14.485Z,32.60
2022-12-03T04:27:59.418Z,35.30
2022-12-03T04:30:25.952Z,35.70
2022-12-03T04:33:11.118Z,37.90
2022-12-03T04:35:43.267Z,51.00
2022-12-03T04:38:12.026Z,37.30
2022-12-03T04:40:58.589Z,32.10
2022-12-03T04:43:25.448Z,32.90
2022-12-03T04:45:51.996Z,27.20
2022-12-03T04:48:18.803Z,30.80
2022-12-03T04:50:45.415Z,39.10
2022-12-03T04:53:13.015Z,41.60
2022-12-03T04:55:39.435Z,41.50
2022-12-03T04:58:06.282Z,37.40
2022-12-03T05:00:32.680Z,33.60
2022-12-03T05:02:59.185Z,28.70
2022-12-03T05:05:25.696Z,37.20
2022-12-03T05:07:52.111Z,38.60
2022-12-03T05:10:18.657Z,36.70
2022-12-03T05:12:45.067Z,35.10
2022-12-03T05:15:11.598Z,36.70
2022-12-03T05:17:38.057Z,34.10
2022-12-03T05:20:24.303Z,36.70
2022-12-03T05:22:50.829Z,44.20
2022-12-03T05:25:17.350Z,45.90
2022-12-03T05:27:43.688Z,41.00
2022-12-03T05:30:10.724Z,43.20
2022-12-03T05:32:38.391Z,39.00
2022-12-03T05:35:05.308Z,41.00
2022-12-03T05:37:31.733Z,42.20
2022-12-03T05:39:58.099Z,36.60
2022-12-03T05:42:43.300Z,36.00
2022-12-03T05:45:10.563Z,36.40
2022-12-03T05:47:37.215Z,38.50
2022-12-03T05:50:04.111Z,40.30
2022-12-03T05:52:30.558Z,29.30
2022-12-03T05:54:56.933Z,41.30
2022-12-03T05:57:23.359Z,44.20
2022-12-03T05:59:49.821Z,45.10
2022-12-03T06:02:16.452Z,39.00
2022-12-03T06:04:42.919Z,44.90
2022-12-03T06:07:13.724Z,38.60
2022-12-03T06:09:40.686Z,38.30
2022-12-03T06:12:08.642Z,40.80
2022-12-03T06:14:35.689Z,43.60
2022-12-03T06:17:03.149Z,38.90
2022-12-03T06:19:29.569Z,38.80
2022-12-03T06:21:56.007Z,37.00
2022-12-03T06:24:22.512Z,37.50
2022-12-03T06:26:48.963Z,43.60
2022-12-03T06:29:15.375Z,45.90
2022-12-03T06:31:42.002Z,43.30
2022-12-03T06:34:08.479Z,40.70
2022-12-03T06:36:34.971Z,40.90
2022-12-03T06:39:01.419Z,40.30
2022-12-03T06:41:27.825Z,37.90
2022-12-03T06:43:54.315Z,40.10
2022-12-03T06:46:20.850Z,37.80
2022-12-03T06:48:47.287Z,39.30
2022-12-03T06:51:13.633Z,38.30
2022-12-03T06:53:40.032Z,32.60
2022-12-03T06:56:06.787Z,38.90
2022-12-03T06:58:33.229Z,41.80
2022-12-03T07:00:59.592Z,41.40
2022-12-03T07:03:26.143Z,43.70
2022-12-03T07:05:52.599Z,39.90
2022-12-03T07:08:19.080Z,42.40
2022-12-03T07:10:45.453Z,38.20
2022-12-03T07:13:11.824Z,45.30
2022-12-03T07:15:38.251Z,40.10
2022-12-03T07:18:04.812Z,39.50
2022-12-03T07:20:31.158Z,44.00
2022-12-03T07:22:57.639Z,43.90
2022-12-03T07:25:24.094Z,37.70
2022-12-03T07:27:50.823Z,40.00
2022-12-03T07:30:17.594Z,38.10
2022-12-03T07:32:43.959Z,44.30
2022-12-03T07:35:10.453Z,44.20
2022-12-03T07:37:37.471Z,45.00
2022-12-03T07:40:05.626Z,39.70
2022-12-03T07:42:32.124Z,41.70
2022-12-03T07:44:58.578Z,40.90
2022-12-03T07:47:24.967Z,45.00
2022-12-03T07:49:51.417Z,42.60
2022-12-03T07:52:17.820Z,42.90
2022-12-03T07:54:44.287Z,40.50
2022-12-03T07:57:10.696Z,40.80
2022-12-03T07:59:37.117Z,35.60
2022-12-03T08:02:04.040Z,37.40
2022-12-03T08:04:30.551Z,34.40
2022-12-03T08:06:56.976Z,42.60
2022-12-03T08:09:23.481Z,41.90
2022-12-03T08:11:50.040Z,36.00
2022-12-03T08:14:20.027Z,35.10
2022-12-03T08:16:48.266Z,43.40
2022-12-03T08:19:17.492Z,38.20
2022-12-03T08:21:45.094Z,37.60
2022-12-03T08:24:21.395Z,42.90
2022-12-03T08:26:49.071Z,36.10
2022-12-03T08:29:19.574Z,40.00
2022-12-03T08:31:52.296Z,42.40
2022-12-03T08:34:22.500Z,40.00
2022-12-03T08:37:05.757Z,38.00
2022-12-03T08:39:44.467Z,40.00
2022-12-03T08:42:40.692Z,36.60
2022-12-03T08:45:28.781Z,34.50
2022-12-03T08:48:18.840Z,34.40
2022-12-03T08:50:46.156Z,34.80
2022-12-03T08:53:31.396Z,33.20
2022-12-03T08:56:02.017Z,38.10
2022-12-03T08:58:38.697Z,43.20
2022-12-03T09:01:11.149Z,43.90
2022-12-03T09:03:41.420Z,38.00
2022-12-03T09:06:07.912Z,41.20
2022-12-03T09:08:34.286Z,34.70
2022-12-03T09:11:01.213Z,36.10
2022-12-03T09:13:27.619Z,37.60
2022-12-03T09:15:54.030Z,35.50
2022-12-03T09:18:20.378Z,41.20
2022-12-03T09:20:46.767Z,45.00
2022-12-03T09:23:13.195Z,41.90
2022-12-03T09:25:39.613Z,44.00
2022-12-03T09:28:06.315Z,40.70
2022-12-03T09:30:32.857Z,42.10
2022-12-03T09:33:00.138Z,45.90
2022-12-03T09:35:27.939Z,40.40
2022-12-03T09:37:54.461Z,34.90
2022-12-03T09:40:22.011Z,35.50
2022-12-03T09:42:49.496Z,40.90
2022-12-03T09:45:17.294Z,42.50
2022-12-03T09:47:47.726Z,35.50
2022-12-03T09:50:27.034Z,33.10
2022-12-03T09:52:58.542Z,36.40
2022-12-03T09:55:28.102Z,34.40
2022-12-03T09:57:57.540Z,38.10
2022-12-03T10:00:29.353Z,42.50
2022-12-03T10:03:04.412Z,41.40
2022-12-03T10:05:30.941Z,45.10
2022-12-03T10:08:06.826Z,37.90
2022-12-03T10:10:35.166Z,37.00
2022-12-03T10:13:02.435Z,40.40
2022-12-03T10:15:29.369Z,45.20
2022-12-03T10:17:57.594Z,33.70
2022-12-03T10:20:25.765Z,37.10
2022-12-03T10:22:52.171Z,40.60
2022-12-03T10:25:22.360Z,45.10
2022-12-03T10:28:05.212Z,43.30
2022-12-03T10:30:32.017Z,42.60
2022-12-03T10:33:02.454Z,40.50
2022-12-03T10:35:41.165Z,52.90
2022-12-03T10:38:22.172Z,48.30
2022-12-03T10:40:50.174Z,52.70
2022-12-03T10:43:19.600Z,55.90
2022-12-03T10:46:10.278Z,53.40
2022-12-03T10:48:36.775Z,41.70
2022-12-03T10:51:21.177Z,40.40
2022-12-03T10:53:50.555Z,41.10
2022-12-03T10:56:27.494Z,45.70
2022-12-03T10:58:55.060Z,47.60
2022-12-03T11:01:25.462Z,47.10
2022-12-03T11:03:56.546Z,49.10
2022-12-03T11:06:23.475Z,47.70
2022-12-03T11:08:58.415Z,50.60
2022-12-03T11:11:30.219Z,52.10
2022-12-03T11:13:59.736Z,47.60
2022-12-03T11:16:41.544Z,42.60
2022-12-03T11:19:41.467Z,44.50
2022-12-03T11:22:10.663Z,46.20
2022-12-03T11:24:39.857Z,43.30
2022-12-03T11:27:18.574Z,42.40
2022-12-03T11:29:59.762Z,50.80
2022-12-03T11:32:55.151Z,50.40
2022-12-03T11:35:24.593Z,50.10
2022-12-03T11:37:51.675Z,52.40
2022-12-03T11:40:18.076Z,52.20
2022-12-03T11:42:47.675Z,43.20
2022-12-03T11:45:38.242Z,44.10
2022-12-03T11:48:15.277Z,46.60
2022-12-03T11:50:52.717Z,42.70
2022-12-03T11:53:23.551Z,43.10
2022-12-03T11:56:10.879Z,47.30
2022-12-03T11:58:43.565Z,47.50
2022-12-03T12:01:10.038Z,52.20
2022-12-03T12:03:50.351Z,54.70
2022-12-03T12:06:21.168Z,51.10
2022-12-03T12:08:59.279Z,54.90
2022-12-03T12:11:42.051Z,47.30
2022-12-03T12:14:12.184Z,47.50
2022-12-03T12:16:53.704Z,41.80
2022-12-03T12:19:51.066Z,46.70
2022-12-03T12:22:26.623Z,51.50
2022-12-03T12:25:33.925Z,49.00
2022-12-03T12:28:00.359Z,47.80
2022-12-03T12:30:26.751Z,48.20
2022-12-03T12:33:23.520Z,81.30
2022-12-03T12:35:51.043Z,49.10
2022-12-03T12:38:22.640Z,49.40
2022-12-03T12:40:50.651Z,51.20
2022-12-03T12:43:24.347Z,53.90
2022-12-03T12:46:13.585Z,62.90
2022-12-03T12:48:48.681Z,69.50
2022-12-03T12:51:20.805Z,63.70
2022-12-03T12:53:47.931Z,60.60
2022-12-03T12:56:30.105Z,48.30
2022-12-03T12:59:13.008Z,60.00
2022-12-03T13:01:41.189Z,56.50
2022-12-03T13:04:23.424Z,49.90
2022-12-03T13:06:54.133Z,47.10
2022-12-03T13:09:26.956Z,60.20
2022-12-03T13:12:03.916Z,71.30
2022-12-03T13:14:35.816Z,68.20
2022-12-03T13:17:15.176Z,59.50
2022-12-03T13:20:01.944Z,60.80
2022-12-03T13:22:29.012Z,68.40
2022-12-03T13:24:59.353Z,72.80
2022-12-03T13:27:32.673Z,63.60
2022-12-03T13:30:18.355Z,65.20
2022-12-03T13:32:44.795Z,53.10
2022-12-03T13:35:31.735Z,50.20
2022-12-03T13:37:59.160Z,48.90
2022-12-03T13:40:34.949Z,45.80
2022-12-03T13:43:11.963Z,53.10
2022-12-03T13:45:49.938Z,56.20
2022-12-03T13:48:31.569Z,54.70
2022-12-03T13:51:14.177Z,52.50
2022-12-03T13:53:41.024Z,57.50
2022-12-03T13:56:28.746Z,57.50
2022-12-03T13:58:57.931Z,63.90
2022-12-03T14:01:24.399Z,57.60
2022-12-03T14:03:50.927Z,48.50
2022-12-03T14:06:17.391Z,64.10
2022-12-03T14:08:44.455Z,65.00
2022-12-03T14:11:34.268Z,65.10
2022-12-03T14:14:00.969Z,68.30
2022-12-03T14:16:27.552Z,64.10
2022-12-03T14:18:54.039Z,64.30
2022-12-03T14:21:21.336Z,73.00
2022-12-03T14:23:47.733Z,93.70
2022-12-03T14:26:14.300Z,68.60
2022-12-03T14:28:40.754Z,63.80
2022-12-03T14:31:07.207Z,78.10
2022-12-03T14:33:33.928Z,101.50
2022-12-03T14:36:00.347Z,94.10
2022-12-03T14:38:26.949Z,89.90
2022-12-03T14:40:53.365Z,82.80
2022-12-03T14:43:19.759Z,64.10
2022-12-03T14:45:46.213Z,60.00
2022-12-03T14:48:12.712Z,61.10
2022-12-03T14:50:39.259Z,60.00
2022-12-03T14:53:05.733Z,61.80
2022-12-03T14:55:32.503Z,50.20
2022-12-03T14:57:58.911Z,55.70
2022-12-03T15:00:25.642Z,52.60
2022-12-03T15:02:52.226Z,63.80
2022-12-03T15:05:26.414Z,56.40
2022-12-03T15:07:54.925Z,61.60
2022-12-03T15:10:21.324Z,55.10
2022-12-03T15:12:47.723Z,69.70
2022-12-03T15:15:14.102Z,76.80
2022-12-03T15:17:40.638Z,68.00
2022-12-03T15:20:07.878Z,66.20
2022-12-03T15:22:34.317Z,63.80
2022-12-03T15:25:02.509Z,58.30
2022-12-03T15:27:28.910Z,66.80
2022-12-03T15:29:55.740Z,75.80
2022-12-03T15:32:22.300Z,73.70
2022-12-03T15:34:51.268Z,72.10
2022-12-03T15:37:17.756Z,74.70
2022-12-03T15:39:48.449Z,59.10
2022-12-03T15:42:15.292Z,61.30
2022-12-03T15:44:41.668Z,49.90
2022-12-03T15:47:08.013Z,57.90
2022-12-03T15:49:34.456Z,54.80
2022-12-03T15:52:00.880Z,45.80
2022-12-03T15:54:27.247Z,62.60
2022-12-03T15:56:57.190Z,58.00
2022-12-03T15:59:23.963Z,44.80
2022-12-03T16:01:50.418Z,51.90
2022-12-03T16:04:16.932Z,54.20
2022-12-03T16:06:43.400Z,63.50
2022-12-03T16:09:09.858Z,63.80
2022-12-03T16:11:36.258Z,59.30
2022-12-03T16:14:02.772Z,67.20
2022-12-03T16:16:29.250Z,64.30
2022-12-03T16:18:55.869Z,67.50
2022-12-03T16:21:26.708Z,57.60
2022-12-03T16:23:54.501Z,55.60
2022-12-03T16:26:21.955Z,64.90
2022-12-03T16:28:48.562Z,65.30
2022-12-03T16:31:15.105Z,70.20
2022-12-03T16:33:41.595Z,63.60
2022-12-03T16:36:08.601Z,61.60
2022-12-03T16:38:35.157Z,62.30
2022-12-03T16:41:02.126Z,60.60
2022-12-03T16:43:28.534Z,60.70
2022-12-03T16:46:24.365Z,62.00
2022-12-03T16:48:56.409Z,56.40
2022-12-03T16:51:22.814Z,57.70
2022-12-03T16:53:49.498Z,56.00
2022-12-03T16:56:16.109Z,59.90
2022-12-03T16:58:43.088Z,56.10
2022-12-03T17:01:10.644Z,49.80
2022-12-03T17:03:37.492Z,61.20
2022-12-03T17:06:05.143Z,65.00
2022-12-03T17:08:31.944Z,67.50
2022-12-03T17:10:58.481Z,67.40
2022-12-03T17:13:25.052Z,78.20
2022-12-03T17:15:51.864Z,70.30
2022-12-03T17:18:18.465Z,78.10
2022-12-03T17:20:44.954Z,66.90
2022-12-03T17:23:12.282Z,59.40
2022-12-03T17:25:38.823Z,74.70
2022-12-03T17:28:05.345Z,77.50
2022-12-03T17:30:31.820Z,78.20
2022-12-03T17:32:58.319Z,60.50
2022-12-03T17:35:25.108Z,74.80
2022-12-03T17:37:51.567Z,82.90
2022-12-03T17:40:18.206Z,74.60
2022-12-03T17:42:44.590Z,69.20
2022-12-03T17:45:12.330Z,64.40
2022-12-03T17:47:38.954Z,63.10
2022-12-03T17:50:07.283Z,56.30
2022-12-03T17:52:33.684Z,62.40
2022-12-03T17:55:11.819Z,58.00
2022-12-03T17:57:40.865Z,55.70
2022-12-03T18:00:08.343Z,51.20
2022-12-03T18:02:35.056Z,47.40
2022-12-03T18:05:01.921Z,62.30
2022-12-03T18:07:28.370Z,63.30
2022-12-03T18:09:55.033Z,67.30
2022-12-03T18:12:21.840Z,73.90
2022-12-03T18:14:48.249Z,79.30
2022-12-03T18:17:14.611Z,64.80
2022-12-03T18:19:41.083Z,52.00
2022-12-03T18:22:07.746Z,66.90
2022-12-03T18:24:34.629Z,54.10
2022-12-03T18:27:01.073Z,58.30
2022-12-03T18:29:27.495Z,50.20
2022-12-03T18:31:53.915Z,58.20
2022-12-03T18:34:20.443Z,52.10
2022-12-03T18:36:49.140Z,62.70
2022-12-03T18:39:26.311Z,54.70
2022-12-03T18:41:54.049Z,63.80
2022-12-03T18:44:21.167Z,53.50
2022-12-03T18:46:55.182Z,56.20
2022-12-03T18:49:22.431Z,60.80
2022-12-03T18:51:52.102Z,65.00
2022-12-03T18:54:22.407Z,60.10
2022-12-03T18:56:48.850Z,58.40
2022-12-03T18:59:15.228Z,62.60
2022-12-03T19:01:41.728Z,56.30
2022-12-03T19:04:10.361Z,60.10
2022-12-03T19:06:36.887Z,54.30
2022-12-03T19:09:03.659Z,67.70
2022-12-03T19:11:30.423Z,69.10
2022-12-03T19:13:59.064Z,68.40
2022-12-03T19:16:26.029Z,61.80
2022-12-03T19:18:53.920Z,56.70
2022-12-03T19:21:23.025Z,60.90
2022-12-03T19:24:16.462Z,66.10
2022-12-03T19:26:36.064Z,61.30
2022-12-03T19:29:02.950Z,49.50
2022-12-03T19:31:33.122Z,58.50
2022-12-03T19:33:59.934Z,58.70
2022-12-03T19:36:30.665Z,60.90
2022-12-03T19:38:59.724Z,62.50
2022-12-03T19:41:30.419Z,62.40
2022-12-03T19:43:58.364Z,62.80
2022-12-03T19:46:31.119Z,58.40
2022-12-03T19:48:57.954Z,53.60
2022-12-03T19:51:38.770Z,62.00
2022-12-03T19:54:08.266Z,57.30
2022-12-03T19:56:34.920Z,58.30
2022-12-03T19:59:01.469Z,53.20
2022-12-03T20:01:32.261Z,46.90
2022-12-03T20:04:02.323Z,51.70
2022-12-03T20:06:32.674Z,55.40
2022-12-03T20:09:11.835Z,49.20
2022-12-03T20:11:41.297Z,31.80
2022-12-03T20:14:13.059Z,46.50
2022-12-03T20:16:39.925Z,56.00
2022-12-03T20:19:10.055Z,54.60
2022-12-03T20:21:38.012Z,53.40
2022-12-03T20:24:05.996Z,54.70
2022-12-03T20:26:32.736Z,56.20
2022-12-03T20:28:59.705Z,58.10
2022-12-03T20:31:30.697Z,56.90
2022-12-03T20:34:01.253Z,55.80
2022-12-03T20:36:30.434Z,60.40
2022-12-03T20:39:00.082Z,58.20
2022-12-03T20:41:26.955Z,44.30
2022-12-03T20:43:54.510Z,63.60
2022-12-03T20:46:27.511Z,62.30
2022-12-03T20:48:55.197Z,61.10
2022-12-03T20:51:26.637Z,59.40
2022-12-03T20:53:54.185Z,49.60
2022-12-03T20:56:25.907Z,60.20
2022-12-03T20:58:53.563Z,55.50
2022-12-03T21:01:29.249Z,48.70
2022-12-03T21:03:57.362Z,50.40
2022-12-03T21:06:26.806Z,43.60
2022-12-03T21:08:54.912Z,49.40
2022-12-03T21:11:25.651Z,53.60
2022-12-03T21:13:53.909Z,51.30
2022-12-03T21:16:45.349Z,55.50
2022-12-03T21:19:10.962Z,47.80
2022-12-03T21:21:37.356Z,44.10
2022-12-03T21:24:04.088Z,53.00
2022-12-03T21:26:30.590Z,60.00
2022-12-03T21:28:56.943Z,52.20
2022-12-03T21:31:26.615Z,44.60
2022-12-03T21:33:55.415Z,52.50
2022-12-03T21:36:23.887Z,51.40
2022-12-03T21:38:50.891Z,53.60
2022-12-03T21:41:17.667Z,53.10
2022-12-03T21:43:44.768Z,50.80
2022-12-03T21:47:09.265Z,56.00
2022-12-03T21:49:01.730Z,42.80
2022-12-03T21:51:28.184Z,53.20
2022-12-03T21:53:54.690Z,41.20
2022-12-03T21:56:21.172Z,47.40
2022-12-03T21:58:47.687Z,57.80
2022-12-03T22:01:21.902Z,51.90
2022-12-03T22:03:49.370Z,39.60
2022-12-03T22:06:16.558Z,57.50
2022-12-03T22:08:43.768Z,50.40
2022-12-03T22:11:24.974Z,44.00
2022-12-03T22:13:51.587Z,42.00
2022-12-03T22:16:21.690Z,50.70
2022-12-03T22:18:48.975Z,55.50
2022-12-03T22:21:19.291Z,45.80
2022-12-03T22:23:46.465Z,45.40
2022-12-03T22:26:16.611Z,43.30
2022-12-03T22:28:45.721Z,50.10
2022-12-03T22:31:13.776Z,39.60
2022-12-03T22:33:40.591Z,43.80
2022-12-03T22:36:18.055Z,45.30
2022-12-03T22:38:47.266Z,51.50
2022-12-03T22:41:14.347Z,41.70
2022-12-03T22:43:40.936Z,45.10
2022-12-03T22:46:10.870Z,49.00
2022-12-03T22:48:38.162Z,41.40
2022-12-03T22:51:12.366Z,47.60
2022-12-03T22:53:38.811Z,48.90
2022-12-03T22:56:05.512Z,46.00
2022-12-03T22:58:32.064Z,50.60
2022-12-03T23:01:02.595Z,41.30
2022-12-03T23:03:30.090Z,45.40
2022-12-03T23:05:56.670Z,47.50
2022-12-03T23:08:23.539Z,48.40
2022-12-03T23:10:52.720Z,45.80
2022-12-03T23:13:20.196Z,54.20
2022-12-03T23:15:51.005Z,45.50
2022-12-03T23:18:19.774Z,47.60
2022-12-03T23:20:50.115Z,38.80
2022-12-03T23:23:18.332Z,46.50
2022-12-03T23:25:56.086Z,42.20
2022-12-03T23:28:22.503Z,43.10
2022-12-03T23:30:48.974Z,39.00
2022-12-03T23:33:15.430Z,46.60
2022-12-03T23:35:41.838Z,40.50
2022-12-03T23:38:08.238Z,34.70
2022-12-03T23:40:35.065Z,46.30
2022-12-03T23:43:01.543Z,39.30
2022-12-03T23:45:27.930Z,48.50
2022-12-03T23:47:58.175Z,48.80
2022-12-03T23:50:26.111Z,49.30
2022-12-03T23:52:52.774Z,45.40
2022-12-03T23:55:19.480Z,38.10
2022-12-03T23:57:46.265Z,43.70
